Time;durP1;ratioP1;P1;durP2;ratioP2;P2;SDS_P1;SDS_P2;PMS_P1;PMS_P2;Temp;Humidity;BMP_temperature;BMP_pressure;BME280_temperature;BME280_humidity;BME280_pressure;Samples;Min_cycle;Max_cycle;Signal;HPM_P1;HPM_P2
2022/09/03 00:02:14;;;;;;;13.68;7.78;;;;;;;;;;5033039;28;20029;-70
2022/09/03 00:04:58;;;;;;;11.13;8.27;;;;;;;;;;5033435;28;20148;-71
2022/09/03 00:07:30;;;;;;;12.23;7.43;;;;;;;;;;5033573;28;20037;-71
2022/09/03 00:09:59;;;;;;;11.98;7.82;;;;;;;;;;5033608;28;20025;-70
2022/09/03 00:12:32;;;;;;;12.90;7.75;;;;;;;;;;5033059;28;20026;-72
2022/09/03 00:15:06;;;;;;;13.00;8.13;;;;;;;;;;5032986;28;20057;-71
2022/09/03 00:17:47;;;;;;;15.32;9.13;;;;;;;;;;5033566;28;20034;-71
2022/09/03 00:20:13;;;;;;;13.43;7.82;;;;;;;;;;5032909;28;20104;-71
2022/09/03 00:22:41;;;;;;;12.07;9.38;;;;;;;;;;5032902;28;20057;-72
2022/09/03 00:25:11;;;;;;;11.02;7.95;;;;;;;;;;5015142;28;20565;-70
2022/09/03 00:27:39;;;;;;;15.25;7.55;;;;;;;;;;5033298;28;20462;-70
2022/09/03 00:30:08;;;;;;;9.88;7.32;;;;;;;;;;5032896;28;20029;-71
2022/09/03 00:32:37;;;;;;;12.52;8.27;;;;;;;;;;5015145;28;20401;-69
2022/09/03 00:35:05;;;;;;;15.43;7.75;;;;;;;;;;5033134;28;20381;-70
2022/09/03 00:37:31;;;;;;;12.85;8.18;;;;;;;;;;5033104;28;20030;-71
2022/09/03 00:39:57;;;;;;;11.68;8.05;;;;;;;;;;5032994;28;20388;-71
2022/09/03 00:42:26;;;;;;;14.02;8.35;;;;;;;;;;5032760;28;20030;-70
2022/09/03 00:45:01;;;;;;;21.48;11.82;;;;;;;;;;5015021;28;20017;-71
2022/09/03 00:47:36;;;;;;;16.92;13.48;;;;;;;;;;5032736;28;20363;-72
2022/09/03 00:50:15;;;;;;;13.63;9.57;;;;;;;;;;5033192;28;20025;-71
2022/09/03 00:52:48;;;;;;;17.67;9.75;;;;;;;;;;5033196;28;20032;-70
2022/09/03 00:55:20;;;;;;;13.70;9.07;;;;;;;;;;5032937;28;20028;-71
2022/09/03 00:57:46;;;;;;;15.05;9.15;;;;;;;;;;5047149;28;20045;-70
2022/09/03 01:00:19;;;;;;;10.60;7.90;;;;;;;;;;5052393;28;20488;-72
2022/09/03 01:08:18;;;;;;;12.68;9.23;;;;;;;;;;3888082;28;20101;-72
2022/09/03 01:10:44;;;;;;;15.02;10.73;;;;;;;;;;4997050;28;20038;-72
2022/09/03 01:13:23;;;;;;;19.92;11.02;;;;;;;;;;4996925;28;20037;-71
2022/09/03 01:15:49;;;;;;;14.27;11.27;;;;;;;;;;4996588;28;20032;-70
2022/09/03 01:18:19;;;;;;;17.35;13.05;;;;;;;;;;4996541;28;20452;-75
2022/09/03 01:20:45;;;;;;;21.63;13.30;;;;;;;;;;4996742;28;20034;-73
2022/09/03 01:23:19;;;;;;;18.92;12.13;;;;;;;;;;4996471;28;20398;-71
2022/09/03 01:25:48;;;;;;;19.58;14.52;;;;;;;;;;4996444;28;20053;-70
2022/09/03 01:28:18;;;;;;;19.17;13.57;;;;;;;;;;4996641;28;20023;-73
2022/09/03 01:30:46;;;;;;;19.83;14.38;;;;;;;;;;4996600;28;20371;-70
2022/09/03 01:33:12;;;;;;;18.98;14.25;;;;;;;;;;4996586;28;20157;-72
2022/09/03 01:35:38;;;;;;;22.10;15.80;;;;;;;;;;4996530;28;20488;-75
2022/09/03 01:38:23;;;;;;;24.98;16.35;;;;;;;;;;4996444;28;20030;-70
2022/09/03 01:40:49;;;;;;;24.48;16.50;;;;;;;;;;4996409;28;20371;-71
2022/09/03 01:43:35;;;;;;;30.15;20.98;;;;;;;;;;4996043;28;20027;-71
2022/09/03 01:46:04;;;;;;;34.00;23.08;;;;;;;;;;4996606;28;20458;-74
2022/09/03 01:48:30;;;;;;;32.08;23.10;;;;;;;;;;4996267;28;20105;-70
2022/09/03 01:51:02;;;;;;;31.38;22.52;;;;;;;;;;4995923;28;20058;-70
2022/09/03 01:53:41;;;;;;;38.15;24.08;;;;;;;;;;4995920;28;20034;-74
2022/09/03 01:56:16;;;;;;;33.28;24.33;;;;;;;;;;4996396;28;20026;-73
2022/09/03 01:58:48;;;;;;;34.83;25.67;;;;;;;;;;4996391;28;20101;-74
2022/09/03 02:01:35;;;;;;;37.60;27.10;;;;;;;;;;4995993;28;20038;-73
2022/09/03 02:04:01;;;;;;;26.42;20.45;;;;;;;;;;4995635;28;20019;-73
2022/09/03 02:06:30;;;;;;;30.63;20.50;;;;;;;;;;4995819;28;20030;-70
2022/09/03 02:08:57;;;;;;;30.40;20.63;;;;;;;;;;4995957;28;20048;-74
2022/09/03 02:11:23;;;;;;;24.17;20.23;;;;;;;;;;4995573;28;20026;-73
2022/09/03 02:13:52;;;;;;;28.08;21.60;;;;;;;;;;4994958;28;20030;-73
2022/09/03 02:16:23;;;;;;;29.00;20.77;;;;;;;;;;4995205;28;20026;-72
2022/09/03 02:18:57;;;;;;;30.77;23.05;;;;;;;;;;4995481;28;20034;-70
2022/09/03 02:21:24;;;;;;;31.45;23.55;;;;;;;;;;4995310;28;20026;-73
2022/09/03 02:23:51;;;;;;;33.10;23.30;;;;;;;;;;4995573;28;20030;-72
2022/09/03 02:26:22;;;;;;;29.75;22.15;;;;;;;;;;4995771;28;20023;-74
2022/09/03 02:28:49;;;;;;;27.13;21.70;;;;;;;;;;4995215;28;20030;-72
2022/09/03 02:31:15;;;;;;;30.73;21.88;;;;;;;;;;4993894;28;20026;-72
2022/09/03 02:33:42;;;;;;;30.90;23.13;;;;;;;;;;4995659;28;20037;-73
2022/09/03 02:36:11;;;;;;;33.85;23.98;;;;;;;;;;4995631;28;20463;-73
2022/09/03 02:38:37;;;;;;;37.90;24.48;;;;;;;;;;4995295;28;20406;-71
2022/09/03 02:41:03;;;;;;;30.65;23.27;;;;;;;;;;4994883;28;20026;-73
2022/09/03 02:43:44;;;;;;;31.77;22.15;;;;;;;;;;4994936;28;20050;-70
2022/09/03 02:46:14;;;;;;;34.10;24.70;;;;;;;;;;4995214;28;20022;-72
2022/09/03 02:48:40;;;;;;;32.67;24.17;;;;;;;;;;4994873;28;20034;-69
2022/09/03 02:51:06;;;;;;;31.63;23.40;;;;;;;;;;4994818;28;20026;-74
2022/09/03 02:53:32;;;;;;;34.33;23.98;;;;;;;;;;4994708;28;20030;-72
2022/09/03 02:56:01;;;;;;;29.33;23.48;;;;;;;;;;4994982;28;20022;-75
2022/09/03 02:58:27;;;;;;;29.40;22.98;;;;;;;;;;4994720;28;20030;-71
2022/09/03 03:00:53;;;;;;;30.98;24.98;;;;;;;;;;4994820;28;20359;-73
2022/09/03 03:03:20;;;;;;;31.50;23.85;;;;;;;;;;4994591;28;20101;-71
2022/09/03 03:05:46;;;;;;;32.92;22.48;;;;;;;;;;4994442;28;20081;-71
2022/09/03 03:08:13;;;;;;;33.22;23.92;;;;;;;;;;4994340;28;20050;-70
2022/09/03 03:10:44;;;;;;;33.38;23.95;;;;;;;;;;4994786;28;20026;-71
2022/09/03 03:13:11;;;;;;;34.20;26.60;;;;;;;;;;4994533;28;20034;-71
2022/09/03 03:15:37;;;;;;;32.33;24.52;;;;;;;;;;4994394;28;20030;-71
2022/09/03 03:18:03;;;;;;;34.47;26.45;;;;;;;;;;4994365;28;20482;-74
2022/09/03 03:20:29;;;;;;;32.00;25.00;;;;;;;;;;4994252;28;20371;-72
2022/09/03 03:22:55;;;;;;;35.08;26.63;;;;;;;;;;4994269;28;20046;-71
2022/09/03 03:25:21;;;;;;;33.92;24.35;;;;;;;;;;4993859;28;20022;-73
2022/09/03 03:27:47;;;;;;;33.55;25.00;;;;;;;;;;4994216;28;20032;-73
2022/09/03 03:30:14;;;;;;;34.10;26.45;;;;;;;;;;4994177;28;20030;-75
2022/09/03 03:32:40;;;;;;;36.70;26.42;;;;;;;;;;4994406;28;20038;-72
2022/09/03 03:35:06;;;;;;;33.17;24.02;;;;;;;;;;4994100;28;20022;-72
2022/09/03 03:37:34;;;;;;;34.58;26.02;;;;;;;;;;4994630;28;20037;-72
2022/09/03 03:40:00;;;;;;;35.60;27.08;;;;;;;;;;4994053;28;20026;-70
2022/09/03 03:42:26;;;;;;;35.80;26.27;;;;;;;;;;4994281;28;20426;-72
2022/09/03 03:44:52;;;;;;;38.28;28.05;;;;;;;;;;4993960;28;20072;-71
2022/09/03 03:47:18;;;;;;;34.25;26.25;;;;;;;;;;4993958;28;20022;-73
2022/09/03 03:49:44;;;;;;;33.95;26.05;;;;;;;;;;4993946;28;20034;-71
2022/09/03 03:52:10;;;;;;;37.45;27.60;;;;;;;;;;4993920;28;20096;-72
2022/09/03 03:54:36;;;;;;;36.10;26.25;;;;;;;;;;4993859;28;20030;-73
2022/09/03 03:57:03;;;;;;;37.35;26.08;;;;;;;;;;4993824;28;20030;-74
2022/09/03 03:59:29;;;;;;;38.83;28.20;;;;;;;;;;4993783;28;20080;-72
2022/09/03 04:01:55;;;;;;;40.53;29.77;;;;;;;;;;4994080;28;20113;-72
2022/09/03 04:04:21;;;;;;;35.53;26.60;;;;;;;;;;4993791;28;20025;-70
2022/09/03 04:06:47;;;;;;;37.30;28.42;;;;;;;;;;4993687;28;20033;-72
2022/09/03 04:09:13;;;;;;;43.60;30.02;;;;;;;;;;4992669;28;20053;-72
2022/09/03 04:11:39;;;;;;;42.40;28.48;;;;;;;;;;4994017;28;20178;-73
2022/09/03 04:14:05;;;;;;;39.28;28.25;;;;;;;;;;4993698;28;20546;-71
2022/09/03 04:16:31;;;;;;;37.63;28.13;;;;;;;;;;4993687;28;20102;-73
2022/09/03 04:18:57;;;;;;;36.67;27.05;;;;;;;;;;4994271;28;20022;-74
2022/09/03 04:21:25;;;;;;;37.47;29.08;;;;;;;;;;4993598;28;20502;-73
2022/09/03 04:23:51;;;;;;;37.22;28.55;;;;;;;;;;4993633;28;20386;-71
2022/09/03 04:26:19;;;;;;;37.20;26.00;;;;;;;;;;4993620;28;20390;-72
2022/09/03 04:28:45;;;;;;;38.58;29.05;;;;;;;;;;4993863;28;20105;-69
2022/09/03 04:31:13;;;;;;;38.72;28.40;;;;;;;;;;4993790;28;20030;-74
2022/09/03 04:33:39;;;;;;;39.50;29.00;;;;;;;;;;4993769;28;20168;-74
2022/09/03 04:36:09;;;;;;;39.03;28.17;;;;;;;;;;4993618;28;20038;-72
2022/09/03 04:38:36;;;;;;;39.03;28.05;;;;;;;;;;4995468;28;20390;-70
2022/09/03 04:41:03;;;;;;;39.38;27.20;;;;;;;;;;4997139;28;20471;-72
2022/09/03 04:43:29;;;;;;;40.22;28.83;;;;;;;;;;4997190;28;20050;-71
2022/09/03 04:45:58;;;;;;;40.47;29.00;;;;;;;;;;4997134;28;20126;-69
2022/09/03 04:48:25;;;;;;;44.80;29.45;;;;;;;;;;4997388;28;20073;-71
2022/09/03 04:50:51;;;;;;;40.38;28.15;;;;;;;;;;4997113;28;20026;-72
2022/09/03 04:53:17;;;;;;;42.72;29.95;;;;;;;;;;4997015;28;20026;-73
2022/09/03 04:55:43;;;;;;;38.28;27.83;;;;;;;;;;4997260;28;20386;-71
2022/09/03 04:58:09;;;;;;;39.00;27.38;;;;;;;;;;4996962;28;20026;-75
2022/09/03 05:00:36;;;;;;;45.13;31.02;;;;;;;;;;4997089;28;20026;-70
2022/09/03 05:03:03;;;;;;;43.55;30.67;;;;;;;;;;4997142;28;20019;-72
2022/09/03 05:05:30;;;;;;;40.53;28.88;;;;;;;;;;4997043;28;20521;-73
2022/09/03 05:08:00;;;;;;;42.45;29.85;;;;;;;;;;4996519;28;20101;-75
2022/09/03 05:10:26;;;;;;;46.45;29.30;;;;;;;;;;4997230;28;20488;-73
2022/09/03 05:13:00;;;;;;;43.50;29.73;;;;;;;;;;4996695;28;20026;-73
2022/09/03 05:15:26;;;;;;;44.05;30.63;;;;;;;;;;4996625;28;20027;-71
2022/09/03 05:17:55;;;;;;;47.53;31.33;;;;;;;;;;4996582;28;20109;-72
2022/09/03 05:20:22;;;;;;;45.03;30.98;;;;;;;;;;4996479;28;20034;-73
2022/09/03 05:22:48;;;;;;;40.85;29.20;;;;;;;;;;4996520;28;20019;-71
2022/09/03 05:25:14;;;;;;;41.67;28.08;;;;;;;;;;4996458;28;20026;-74
2022/09/03 05:27:40;;;;;;;42.63;28.83;;;;;;;;;;4996394;28;20073;-72
2022/09/03 05:30:06;;;;;;;42.22;27.80;;;;;;;;;;4996361;28;20359;-73
2022/09/03 05:32:33;;;;;;;46.03;29.55;;;;;;;;;;4996306;28;20026;-72
2022/09/03 05:34:59;;;;;;;41.42;28.30;;;;;;;;;;4996306;28;20398;-73
2022/09/03 05:37:25;;;;;;;42.45;27.50;;;;;;;;;;4996453;28;20562;-74
2022/09/03 05:39:51;;;;;;;39.47;26.83;;;;;;;;;;4996096;28;20467;-70
2022/09/03 05:42:17;;;;;;;39.47;27.92;;;;;;;;;;4996149;28;20026;-72
2022/09/03 05:44:43;;;;;;;39.17;27.92;;;;;;;;;;4994825;28;20027;-71
2022/09/03 05:47:10;;;;;;;42.15;29.25;;;;;;;;;;4996044;28;20026;-72
2022/09/03 05:49:36;;;;;;;42.35;28.30;;;;;;;;;;4996001;28;20033;-70
2022/09/03 05:52:02;;;;;;;36.33;26.10;;;;;;;;;;4995966;28;20030;-75
2022/09/03 05:54:28;;;;;;;45.08;28.83;;;;;;;;;;4996406;28;20041;-72
2022/09/03 05:56:54;;;;;;;46.92;29.15;;;;;;;;;;4995842;28;20027;-71
2022/09/03 05:59:20;;;;;;;42.97;28.80;;;;;;;;;;4995704;28;20471;-74
2022/09/03 06:01:48;;;;;;;49.08;30.08;;;;;;;;;;4995981;28;20022;-74
2022/09/03 06:04:15;;;;;;;45.15;27.98;;;;;;;;;;4996008;28;20085;-72
2022/09/03 06:06:42;;;;;;;42.35;28.75;;;;;;;;;;4995667;28;20101;-72
2022/09/03 06:09:10;;;;;;;41.58;27.77;;;;;;;;;;4995720;28;20117;-71
2022/09/03 06:11:37;;;;;;;48.38;29.27;;;;;;;;;;4995539;28;20061;-73
2022/09/03 06:14:04;;;;;;;43.63;28.75;;;;;;;;;;4995512;28;20081;-72
2022/09/03 06:16:31;;;;;;;45.00;27.80;;;;;;;;;;4995472;28;20030;-72
2022/09/03 06:18:57;;;;;;;47.90;29.55;;;;;;;;;;4995448;28;20030;-73
2022/09/03 06:21:23;;;;;;;41.70;26.48;;;;;;;;;;4995614;28;20379;-71
2022/09/03 06:23:57;;;;;;;46.53;29.35;;;;;;;;;;4995324;28;20054;-70
2022/09/03 06:26:24;;;;;;;44.72;28.00;;;;;;;;;;4995924;28;20102;-76
2022/09/03 06:28:54;;;;;;;42.33;28.13;;;;;;;;;;4995224;28;20157;-71
2022/09/03 06:31:20;;;;;;;39.10;25.80;;;;;;;;;;4994014;28;20034;-72
2022/09/03 06:33:46;;;;;;;38.92;26.23;;;;;;;;;;4995446;28;20410;-72
2022/09/03 06:36:17;;;;;;;45.45;28.25;;;;;;;;;;4995071;28;20031;-71
2022/09/03 06:38:44;;;;;;;39.33;25.63;;;;;;;;;;4993785;28;20116;-71
2022/09/03 06:41:23;;;;;;;37.70;24.15;;;;;;;;;;4994951;28;20038;-74
2022/09/03 06:43:50;;;;;;;39.67;24.38;;;;;;;;;;4995621;28;20417;-73
2022/09/03 06:46:17;;;;;;;41.35;25.30;;;;;;;;;;4994927;28;20146;-73
2022/09/03 06:48:43;;;;;;;31.95;21.98;;;;;;;;;;4994898;28;20027;-72
2022/09/03 06:51:10;;;;;;;28.88;21.27;;;;;;;;;;4995063;28;20062;-74
2022/09/03 06:53:38;;;;;;;30.50;21.20;;;;;;;;;;4995065;28;20022;-74
2022/09/03 06:56:14;;;;;;;28.20;21.65;;;;;;;;;;4994982;28;20037;-73
2022/09/03 06:58:44;;;;;;;28.10;20.20;;;;;;;;;;4994690;28;20498;-71
2022/09/03 07:01:15;;;;;;;30.17;21.88;;;;;;;;;;4993965;28;20067;-76
2022/09/03 07:03:41;;;;;;;28.48;20.58;;;;;;;;;;4994885;28;20053;-70
2022/09/03 07:06:15;;;;;;;27.15;19.98;;;;;;;;;;4994509;28;20077;-73
2022/09/03 07:08:42;;;;;;;29.52;20.75;;;;;;;;;;4994489;28;20089;-71
2022/09/03 07:11:12;;;;;;;26.60;20.23;;;;;;;;;;4995239;28;20061;-73
2022/09/03 07:13:39;;;;;;;;;;;;;;;;;;4994890;28;20030;-71
2022/09/03 07:16:07;;;;;;;26.25;18.65;;;;;;;;;;4994969;28;19909;-73
2022/09/03 07:18:33;;;;;;;28.17;19.23;;;;;;;;;;4994340;28;20132;-71
2022/09/03 07:21:10;;;;;;;28.73;19.52;;;;;;;;;;4994264;28;20054;-73
2022/09/03 07:23:37;;;;;;;25.73;17.65;;;;;;;;;;4994842;28;20030;-72
2022/09/03 07:26:05;;;;;;;27.15;19.80;;;;;;;;;;4994801;28;20019;-72
2022/09/03 07:28:31;;;;;;;27.27;18.58;;;;;;;;;;4994197;28;20025;-72
2022/09/03 07:31:08;;;;;;;28.58;19.30;;;;;;;;;;4994120;28;20093;-69
2022/09/03 07:33:34;;;;;;;24.85;17.73;;;;;;;;;;4994203;28;20030;-71
2022/09/03 07:36:07;;;;;;;23.52;18.17;;;;;;;;;;4994393;28;20037;-73
2022/09/03 07:38:34;;;;;;;26.63;17.85;;;;;;;;;;4994676;28;20409;-73
2022/09/03 07:41:01;;;;;;;29.27;19.52;;;;;;;;;;4993959;28;20556;-73
2022/09/03 07:43:28;;;;;;;25.80;17.67;;;;;;;;;;4994252;28;20050;-72
2022/09/03 07:45:55;;;;;;;26.92;18.00;;;;;;;;;;4994012;28;20045;-71
2022/09/03 07:48:22;;;;;;;25.30;18.05;;;;;;;;;;4994530;28;20022;-73
2022/09/03 07:50:48;;;;;;;24.17;17.27;;;;;;;;;;4993894;28;20088;-72
2022/09/03 07:53:16;;;;;;;22.20;16.90;;;;;;;;;;4993887;28;20097;-72
2022/09/03 07:55:43;;;;;;;22.70;15.93;;;;;;;;;;4994167;28;20037;-71
2022/09/03 07:58:11;;;;;;;24.42;16.95;;;;;;;;;;4993885;28;20057;-74
2022/09/03 08:00:37;;;;;;;25.60;17.38;;;;;;;;;;4993766;28;20367;-72
2022/09/03 08:03:07;;;;;;;25.05;16.63;;;;;;;;;;4993869;28;20606;-70
2022/09/03 08:05:33;;;;;;;18.63;14.50;;;;;;;;;;4993792;28;20030;-72
2022/09/03 08:08:00;;;;;;;24.17;15.65;;;;;;;;;;4993642;28;20050;-72
2022/09/03 08:10:29;;;;;;;23.35;14.77;;;;;;;;;;4994550;28;20045;-73
2022/09/03 08:12:55;;;;;;;21.42;15.05;;;;;;;;;;4996445;28;20026;-72
2022/09/03 08:15:21;;;;;;;20.30;13.88;;;;;;;;;;4997996;28;20037;-71
2022/09/03 08:17:48;;;;;;;21.88;14.43;;;;;;;;;;4996416;28;20052;-73
2022/09/03 08:20:14;;;;;;;18.40;13.27;;;;;;;;;;4997618;28;20038;-73
2022/09/03 08:22:40;;;;;;;17.65;12.90;;;;;;;;;;4997644;28;20093;-72
2022/09/03 08:25:07;;;;;;;20.90;13.48;;;;;;;;;;4997798;28;20057;-72
2022/09/03 08:27:33;;;;;;;18.45;14.38;;;;;;;;;;4998023;28;20064;-72
2022/09/03 08:30:00;;;;;;;18.10;12.77;;;;;;;;;;4997500;28;20030;-74
2022/09/03 08:32:26;;;;;;;19.98;13.85;;;;;;;;;;4997932;28;20554;-72
2022/09/03 08:34:52;;;;;;;20.08;13.65;;;;;;;;;;4997272;28;20081;-75
2022/09/03 08:37:18;;;;;;;21.92;13.98;;;;;;;;;;4997024;28;20022;-72
2022/09/03 08:39:44;;;;;;;20.15;13.90;;;;;;;;;;4997593;28;20031;-72
2022/09/03 08:42:37;;;;;;;20.15;13.38;;;;;;;;;;4997298;28;20023;-71
2022/09/03 08:45:06;;;;;;;22.77;13.25;;;;;;;;;;4997201;28;20513;-74
2022/09/03 08:47:34;;;;;;;18.40;12.80;;;;;;;;;;4997186;28;20018;-74
2022/09/03 08:50:30;;;;;;;17.67;13.02;;;;;;;;;;4997592;28;20037;-76
2022/09/03 08:53:16;;;;;;;18.92;13.65;;;;;;;;;;4988697;28;20038;-73
2022/09/03 08:55:43;;;;;;;18.45;12.48;;;;;;;;;;4996797;28;20497;-71
2022/09/03 08:58:13;;;;;;;17.85;11.43;;;;;;;;;;4997262;28;20601;-72
2022/09/03 09:00:41;;;;;;;14.32;10.95;;;;;;;;;;4997232;28;20060;-72
2022/09/03 09:03:26;;;;;;;13.45;10.45;;;;;;;;;;4996997;28;20030;-72
2022/09/03 09:06:06;;;;;;;13.82;9.48;;;;;;;;;;4996707;28;20037;-77
2022/09/03 09:08:32;;;;;;;13.35;9.77;;;;;;;;;;4995064;28;20050;-73
2022/09/03 09:11:07;;;;;;;16.10;10.88;;;;;;;;;;4997983;28;20029;-73
2022/09/03 09:13:36;;;;;;;12.40;7.97;;;;;;;;;;4996860;28;20149;-74
2022/09/03 09:16:18;;;;;;;12.48;8.80;;;;;;;;;;4997319;28;20145;-75
2022/09/03 09:19:10;;;;;;;13.02;8.68;;;;;;;;;;4995166;28;20049;-76
2022/09/03 09:21:48;;;;;;;14.93;8.98;;;;;;;;;;4997059;28;20030;-75
2022/09/03 09:24:38;;;;;;;13.75;8.23;;;;;;;;;;4995975;28;20033;-74
2022/09/03 09:27:05;;;;;;;14.18;9.55;;;;;;;;;;4991167;28;20117;-73
2022/09/03 09:29:32;;;;;;;14.20;9.32;;;;;;;;;;4996924;28;20033;-78
2022/09/03 09:31:58;;;;;;;16.05;10.88;;;;;;;;;;4996951;28;20046;-74
2022/09/03 09:34:24;;;;;;;14.45;9.13;;;;;;;;;;4996793;28;20033;-74
2022/09/03 09:36:52;;;;;;;13.65;9.32;;;;;;;;;;4996842;28;20018;-72
2022/09/03 09:39:18;;;;;;;13.32;8.93;;;;;;;;;;4996615;28;20023;-73
2022/09/03 09:41:56;;;;;;;11.82;8.70;;;;;;;;;;4996435;28;20023;-72
2022/09/03 09:44:25;;;;;;;13.20;8.68;;;;;;;;;;4996134;28;20033;-73
2022/09/03 09:46:51;;;;;;;14.30;9.25;;;;;;;;;;4994969;28;20033;-74
2022/09/03 09:49:31;;;;;;;15.00;9.05;;;;;;;;;;4995236;28;20030;-73
2022/09/03 09:52:02;;;;;;;11.70;7.75;;;;;;;;;;4996810;28;20033;-73
2022/09/03 09:54:28;;;;;;;13.98;8.30;;;;;;;;;;4996002;28;20022;-74
2022/09/03 09:57:02;;;;;;;12.52;7.90;;;;;;;;;;4995465;28;20019;-74
2022/09/03 09:59:28;;;;;;;10.95;7.45;;;;;;;;;;4996314;28;20109;-75
2022/09/03 10:02:03;;;;;;;13.00;7.15;;;;;;;;;;4995891;28;20470;-75
2022/09/03 10:04:31;;;;;;;11.60;8.27;;;;;;;;;;4996087;28;20033;-72
2022/09/03 10:07:21;;;;;;;12.15;7.85;;;;;;;;;;4995467;28;20074;-73
2022/09/03 10:09:57;;;;;;;12.98;7.80;;;;;;;;;;4995532;28;20421;-72
2022/09/03 10:12:25;;;;;;;12.80;7.93;;;;;;;;;;4995881;28;20026;-73
2022/09/03 10:15:05;;;;;;;12.30;6.82;;;;;;;;;;4994411;28;20030;-72
2022/09/03 10:17:43;;;;;;;12.30;7.45;;;;;;;;;;4995832;28;20068;-73
2022/09/03 10:20:29;;;;;;;12.02;6.47;;;;;;;;;;4995624;28;20037;-72
2022/09/03 10:22:57;;;;;;;11.90;6.88;;;;;;;;;;4995968;28;20023;-73
2022/09/03 10:25:25;;;;;;;13.00;6.65;;;;;;;;;;4995413;28;20026;-73
2022/09/03 10:27:54;;;;;;;11.40;6.75;;;;;;;;;;4995297;28;20023;-72
2022/09/03 10:30:21;;;;;;;10.90;6.10;;;;;;;;;;4995548;28;20022;-72
2022/09/03 10:32:48;;;;;;;11.60;6.68;;;;;;;;;;4995149;28;20046;-74
2022/09/03 10:35:20;;;;;;;8.75;5.93;;;;;;;;;;4994378;28;20027;-72
2022/09/03 10:37:54;;;;;;;9.73;5.78;;;;;;;;;;4995207;28;20089;-72
2022/09/03 10:40:32;;;;;;;8.73;5.38;;;;;;;;;;4995582;28;20077;-73
2022/09/03 10:43:15;;;;;;;12.70;5.93;;;;;;;;;;4994996;28;20026;-72
2022/09/03 10:45:47;;;;;;;9.00;5.68;;;;;;;;;;4995308;28;20022;-74
2022/09/03 10:48:26;;;;;;;10.77;6.13;;;;;;;;;;4995181;28;20030;-72
2022/09/03 10:50:54;;;;;;;8.45;6.00;;;;;;;;;;4995203;28;20031;-73
2022/09/03 10:53:20;;;;;;;10.32;6.15;;;;;;;;;;4994857;28;20057;-74
2022/09/03 10:55:49;;;;;;;9.63;5.55;;;;;;;;;;4994770;28;20033;-72
2022/09/03 10:58:24;;;;;;;9.95;5.15;;;;;;;;;;5131947;27;20147;-72
2022/09/03 11:00:56;;;;;;;9.93;5.03;;;;;;;;;;5110047;28;20016;-73
2022/09/03 11:03:42;;;;;;;12.02;5.70;;;;;;;;;;5110607;28;20027;-74
2022/09/03 11:06:14;;;;;;;8.30;4.82;;;;;;;;;;5099501;28;20070;-71
2022/09/03 11:08:46;;;;;;;8.65;5.65;;;;;;;;;;5090078;28;20024;-74
2022/09/03 11:11:18;;;;;;;15.25;6.10;;;;;;;;;;5090761;28;20016;-73
2022/09/03 11:13:47;;;;;;;8.60;5.20;;;;;;;;;;5090031;28;20082;-73
2022/09/03 11:16:18;;;;;;;10.95;5.70;;;;;;;;;;5090437;28;20020;-73
2022/09/03 11:18:44;;;;;;;10.48;5.90;;;;;;;;;;5090511;28;20025;-71
2022/09/03 11:21:13;;;;;;;10.93;5.50;;;;;;;;;;5090401;28;20500;-72
2022/09/03 11:23:43;;;;;;;9.98;5.28;;;;;;;;;;5090663;28;20096;-74
2022/09/03 11:26:11;;;;;;;9.77;5.20;;;;;;;;;;5072201;28;20107;-72
2022/09/03 11:28:37;;;;;;;9.15;4.00;;;;;;;;;;5090282;28;20021;-74
2022/09/03 11:31:03;;;;;;;7.93;4.78;;;;;;;;;;5090253;28;20361;-73
2022/09/03 11:33:32;;;;;;;7.47;4.20;;;;;;;;;;5090165;28;20392;-72
2022/09/03 11:35:59;;;;;;;8.05;3.70;;;;;;;;;;5090265;28;20032;-72
2022/09/03 11:38:29;;;;;;;5.35;3.03;;;;;;;;;;5090646;28;20025;-72
2022/09/03 11:40:55;;;;;;;8.60;3.47;;;;;;;;;;5090608;28;20017;-71
2022/09/03 11:43:25;;;;;;;8.77;3.20;;;;;;;;;;5090244;28;20021;-74
2022/09/03 11:46:03;;;;;;;5.97;2.97;;;;;;;;;;5090258;28;20020;-74
2022/09/03 11:48:42;;;;;;;7.07;3.30;;;;;;;;;;5089949;28;20021;-72
2022/09/03 11:51:17;;;;;;;5.40;2.97;;;;;;;;;;5089917;28;20012;-74
2022/09/03 11:53:52;;;;;;;7.57;3.20;;;;;;;;;;5090078;28;20028;-73
2022/09/03 11:56:19;;;;;;;7.35;3.50;;;;;;;;;;5086634;28;20410;-73
2022/09/03 11:58:45;;;;;;;6.75;2.92;;;;;;;;;;5069620;28;20025;-73
2022/09/03 12:01:12;;;;;;;14.68;3.28;;;;;;;;;;5069596;28;20029;-72
2022/09/03 12:03:48;;;;;;;6.53;3.22;;;;;;;;;;5051442;28;20387;-72
2022/09/03 12:06:20;;;;;;;4.75;2.70;;;;;;;;;;5069464;28;20027;-73
2022/09/03 12:09:00;;;;;;;5.80;2.63;;;;;;;;;;5061297;28;20025;-74
2022/09/03 12:11:45;;;;;;;5.05;3.13;;;;;;;;;;5056768;28;20024;-74
2022/09/03 12:14:30;;;;;;;7.85;2.85;;;;;;;;;;5056206;28;20103;-72
2022/09/03 12:16:56;;;;;;;5.53;2.95;;;;;;;;;;5056068;28;20388;-73
2022/09/03 12:19:28;;;;;;;7.32;2.70;;;;;;;;;;5055828;28;20031;-73
2022/09/03 12:21:55;;;;;;;7.03;2.72;;;;;;;;;;5056118;28;20476;-74
2022/09/03 12:24:22;;;;;;;6.80;2.70;;;;;;;;;;5055744;28;20496;-73
2022/09/03 12:26:48;;;;;;;5.07;2.30;;;;;;;;;;5055969;28;20048;-74
2022/09/03 12:29:23;;;;;;;5.70;2.30;;;;;;;;;;5055605;28;20037;-71
2022/09/03 12:31:50;;;;;;;6.35;2.40;;;;;;;;;;5055783;28;20488;-73
2022/09/03 12:34:17;;;;;;;6.28;2.50;;;;;;;;;;5055787;28;20029;-74
2022/09/03 12:36:44;;;;;;;3.60;1.98;;;;;;;;;;5056001;28;20024;-74
2022/09/03 12:39:15;;;;;;;3.85;1.98;;;;;;;;;;5055463;28;20029;-74
2022/09/03 12:41:56;;;;;;;7.60;2.40;;;;;;;;;;5055706;28;20017;-74
2022/09/03 12:44:30;;;;;;;5.53;2.10;;;;;;;;;;5055934;28;20029;-75
2022/09/03 12:47:02;;;;;;;6.70;2.10;;;;;;;;;;5055628;28;20025;-74
2022/09/03 12:49:33;;;;;;;7.60;2.30;;;;;;;;;;5055330;28;20176;-74
2022/09/03 12:52:09;;;;;;;4.70;2.05;;;;;;;;;;5055792;28;20036;-74
2022/09/03 12:54:37;;;;;;;4.82;2.05;;;;;;;;;;5055460;28;20477;-75
2022/09/03 12:57:04;;;;;;;5.47;2.42;;;;;;;;;;5054866;28;20090;-74
2022/09/03 12:59:32;;;;;;;3.90;2.25;;;;;;;;;;5055339;28;20025;-74
2022/09/03 13:02:01;;;;;;;5.03;2.25;;;;;;;;;;5055278;28;20445;-74
2022/09/03 13:04:29;;;;;;;5.25;2.08;;;;;;;;;;5054987;28;20024;-74
2022/09/03 13:07:15;;;;;;;4.70;2.45;;;;;;;;;;5055152;28;20105;-74
2022/09/03 13:09:41;;;;;;;5.63;2.17;;;;;;;;;;5054759;28;20033;-75
2022/09/03 13:12:19;;;;;;;4.00;2.15;;;;;;;;;;5055403;28;20099;-72
2022/09/03 13:14:49;;;;;;;4.97;2.08;;;;;;;;;;5036626;28;20403;-74
2022/09/03 13:17:27;;;;;;;3.75;1.90;;;;;;;;;;5054715;28;20025;-74
2022/09/03 13:20:16;;;;;;;3.75;2.00;;;;;;;;;;5054273;28;20043;-73
2022/09/03 13:22:46;;;;;;;7.78;2.30;;;;;;;;;;5054974;28;20021;-72
2022/09/03 13:25:13;;;;;;;5.13;2.10;;;;;;;;;;5054645;28;20103;-72
2022/09/03 13:27:39;;;;;;;5.07;2.30;;;;;;;;;;5054593;28;20029;-73
2022/09/03 13:30:10;;;;;;;6.20;2.13;;;;;;;;;;5054777;28;20082;-74
2022/09/03 13:32:42;;;;;;;5.45;2.30;;;;;;;;;;5054753;28;20066;-74
2022/09/03 13:35:15;;;;;;;6.60;2.13;;;;;;;;;;5054641;28;20060;-73
2022/09/03 13:37:52;;;;;;;5.05;2.30;;;;;;;;;;5054864;28;20075;-74
2022/09/03 13:40:22;;;;;;;4.10;2.30;;;;;;;;;;5054882;28;20031;-75
2022/09/03 13:42:51;;;;;;;5.20;2.20;;;;;;;;;;5054801;28;20052;-73
2022/09/03 13:45:29;;;;;;;6.37;2.30;;;;;;;;;;5054784;28;20473;-73
2022/09/03 13:50:48;;;;;;;5.88;2.15;;;;;;;;;;5054095;28;20048;-75
2022/09/03 13:53:21;;;;;;;6.05;2.20;;;;;;;;;;5054313;28;20032;-74
2022/09/03 13:55:49;;;;;;;6.72;1.90;;;;;;;;;;5053882;28;20063;-72
2022/09/03 13:58:29;;;;;;;7.82;2.55;;;;;;;;;;5053407;28;20049;-73
2022/09/03 14:00:58;;;;;;;4.72;2.67;;;;;;;;;;5054485;28;20021;-73
2022/09/03 14:03:27;;;;;;;4.90;2.30;;;;;;;;;;5053421;28;20508;-73
2022/09/03 14:06:12;;;;;;;4.30;1.90;;;;;;;;;;5052145;28;20436;-74
2022/09/03 14:09:10;;;;;;;6.00;2.42;;;;;;;;;;5052838;28;20388;-74
2022/09/03 14:11:54;;;;;;;6.50;2.63;;;;;;;;;;5029935;28;20515;-74
2022/09/03 14:14:23;;;;;;;4.25;2.05;;;;;;;;;;5053317;28;20078;-73
2022/09/03 14:17:11;;;;;;;5.80;2.35;;;;;;;;;;5053230;28;20028;-73
2022/09/03 14:19:43;;;;;;;3.20;2.05;;;;;;;;;;5053928;28;20166;-73
2022/09/03 14:22:09;;;;;;;7.00;1.90;;;;;;;;;;5053873;28;20091;-75
2022/09/03 14:24:41;;;;;;;5.57;2.38;;;;;;;;;;5053501;28;20117;-74
2022/09/03 14:27:07;;;;;;;3.30;1.80;;;;;;;;;;5053986;28;20127;-73
2022/09/03 14:29:34;;;;;;;3.50;1.95;;;;;;;;;;5053699;28;20029;-72
2022/09/03 14:32:18;;;;;;;5.78;2.05;;;;;;;;;;5053168;28;20025;-74
2022/09/03 14:34:53;;;;;;;5.60;2.10;;;;;;;;;;5053365;28;20404;-75
2022/09/03 14:37:25;;;;;;;4.30;1.77;;;;;;;;;;5053531;28;20377;-74
2022/09/03 14:39:56;;;;;;;5.72;2.15;;;;;;;;;;5053300;28;20025;-73
2022/09/03 14:42:41;;;;;;;3.08;2.15;;;;;;;;;;5053254;28;20032;-73
2022/09/03 14:45:07;;;;;;;4.28;1.90;;;;;;;;;;5053279;28;20043;-74
2022/09/03 14:47:50;;;;;;;4.45;1.98;;;;;;;;;;5053201;28;20024;-74
2022/09/03 14:50:16;;;;;;;5.07;2.20;;;;;;;;;;5053712;28;20036;-75
2022/09/03 14:53:11;;;;;;;4.80;2.00;;;;;;;;;;5053137;28;20025;-74